sensor_id;sensor_type;location;lat;lon;timestamp;pressure;altitude;pressure_sealevel;temperature;humidity
38612;BME280;24368;52.156;20.788;2022-08-21T00:05:00;100072.02;;;22.65;75.13
38612;BME280;24368;52.156;20.788;2022-08-21T00:10:03;100070.12;;;22.62;75.19
38612;BME280;24368;52.156;20.788;2022-08-21T00:15:06;100069.67;;;22.64;74.96
38612;BME280;24368;52.156;20.788;2022-08-21T00:20:09;100072.76;;;22.67;74.72
38612;BME280;24368;52.156;20.788;2022-08-21T00:25:12;100068.80;;;22.66;75.07
38612;BME280;24368;52.156;20.788;2022-08-21T00:30:15;100067.09;;;22.58;75.52
38612;BME280;24368;52.156;20.788;2022-08-21T00:35:24;100066.84;;;22.49;76.25
38612;BME280;24368;52.156;20.788;2022-08-21T00:40:37;100068.98;;;22.43;76.30
38612;BME280;24368;52.156;20.788;2022-08-21T00:45:39;100066.23;;;22.28;77.12
38612;BME280;24368;52.156;20.788;2022-08-21T00:50:46;100058.02;;;22.15;77.56
38612;BME280;24368;52.156;20.788;2022-08-21T00:55:53;100063.29;;;22.05;78.17
38612;BME280;24368;52.156;20.788;2022-08-21T01:00:56;100061.29;;;22.06;78.48
38612;BME280;24368;52.156;20.788;2022-08-21T01:05:59;100058.33;;;22.00;78.57
38612;BME280;24368;52.156;20.788;2022-08-21T01:11:01;100054.56;;;21.91;79.18
38612;BME280;24368;52.156;20.788;2022-08-21T01:16:05;100060.71;;;21.82;79.71
38612;BME280;24368;52.156;20.788;2022-08-21T01:21:11;100050.57;;;21.72;80.13
38612;BME280;24368;52.156;20.788;2022-08-21T01:26:14;100039.85;;;21.56;81.39
38612;BME280;24368;52.156;20.788;2022-08-21T01:31:17;100038.26;;;21.52;81.62
38612;BME280;24368;52.156;20.788;2022-08-21T01:36:24;100036.99;;;21.49;81.60
38612;BME280;24368;52.156;20.788;2022-08-21T01:41:26;100031.23;;;21.48;81.97
38612;BME280;24368;52.156;20.788;2022-08-21T01:46:28;100024.56;;;21.46;82.01
38612;BME280;24368;52.156;20.788;2022-08-21T01:51:30;100018.73;;;21.48;82.02
38612;BME280;24368;52.156;20.788;2022-08-21T01:56:38;100010.40;;;21.51;81.81
38612;BME280;24368;52.156;20.788;2022-08-21T02:01:41;100002.58;;;21.60;81.50
38612;BME280;24368;52.156;20.788;2022-08-21T02:06:44;100005.16;;;21.51;81.64
38612;BME280;24368;52.156;20.788;2022-08-21T02:11:45;100014.13;;;21.55;81.15
38612;BME280;24368;52.156;20.788;2022-08-21T02:16:47;100012.91;;;21.54;81.50
38612;BME280;24368;52.156;20.788;2022-08-21T02:21:50;100005.58;;;21.50;81.74
38612;BME280;24368;52.156;20.788;2022-08-21T02:27:00;100004.72;;;21.35;82.11
38612;BME280;24368;52.156;20.788;2022-08-21T02:32:02;99996.91;;;21.21;82.77
38612;BME280;24368;52.156;20.788;2022-08-21T02:37:04;99990.15;;;21.17;83.18
38612;BME280;24368;52.156;20.788;2022-08-21T02:42:06;99986.52;;;21.14;83.05
38612;BME280;24368;52.156;20.788;2022-08-21T02:47:08;99986.88;;;21.07;83.22
38612;BME280;24368;52.156;20.788;2022-08-21T02:52:09;99985.39;;;21.02;83.42
38612;BME280;24368;52.156;20.788;2022-08-21T02:57:13;99982.20;;;21.11;83.13
38612;BME280;24368;52.156;20.788;2022-08-21T03:02:14;99979.64;;;21.05;83.47
38612;BME280;24368;52.156;20.788;2022-08-21T03:07:18;99977.16;;;21.11;83.09
38612;BME280;24368;52.156;20.788;2022-08-21T03:12:20;99972.75;;;21.07;83.24
38612;BME280;24368;52.156;20.788;2022-08-21T03:17:22;99970.50;;;20.96;83.89
38612;BME280;24368;52.156;20.788;2022-08-21T03:22:24;99973.40;;;20.87;84.41
38612;BME280;24368;52.156;20.788;2022-08-21T03:27:27;99978.70;;;20.76;84.72
38612;BME280;24368;52.156;20.788;2022-08-21T03:32:29;99972.52;;;20.61;85.27
38612;BME280;24368;52.156;20.788;2022-08-21T03:37:32;99963.98;;;20.47;85.97
38612;BME280;24368;52.156;20.788;2022-08-21T03:42:33;99964.70;;;20.62;85.52
38612;BME280;24368;52.156;20.788;2022-08-21T03:47:35;99969.66;;;20.61;85.60
38612;BME280;24368;52.156;20.788;2022-08-21T03:52:37;99969.42;;;20.54;85.64
38612;BME280;24368;52.156;20.788;2022-08-21T03:57:38;99977.48;;;20.52;85.91
38612;BME280;24368;52.156;20.788;2022-08-21T04:02:40;99976.05;;;20.65;85.56
38612;BME280;24368;52.156;20.788;2022-08-21T04:07:42;99979.60;;;20.65;85.61
38612;BME280;24368;52.156;20.788;2022-08-21T04:12:46;99980.60;;;20.78;84.99
38612;BME280;24368;52.156;20.788;2022-08-21T04:17:48;99977.27;;;20.78;84.92
38612;BME280;24368;52.156;20.788;2022-08-21T04:22:51;99977.65;;;20.74;85.29
38612;BME280;24368;52.156;20.788;2022-08-21T04:27:56;99972.79;;;20.75;85.39
38612;BME280;24368;52.156;20.788;2022-08-21T04:32:59;99973.47;;;20.66;85.63
38612;BME280;24368;52.156;20.788;2022-08-21T04:38:06;99971.45;;;20.63;85.97
38612;BME280;24368;52.156;20.788;2022-08-21T04:43:09;99974.04;;;20.70;86.36
38612;BME280;24368;52.156;20.788;2022-08-21T04:48:12;99974.08;;;20.73;86.04
38612;BME280;24368;52.156;20.788;2022-08-21T04:53:18;99976.90;;;20.74;86.18
38612;BME280;24368;52.156;20.788;2022-08-21T04:58:22;99974.74;;;20.80;85.93
38612;BME280;24368;52.156;20.788;2022-08-21T05:03:24;99979.80;;;20.85;85.64
38612;BME280;24368;52.156;20.788;2022-08-21T05:08:26;99977.98;;;20.95;85.29
38612;BME280;24368;52.156;20.788;2022-08-21T05:13:28;99979.27;;;20.90;85.22
38612;BME280;24368;52.156;20.788;2022-08-21T05:18:30;99981.20;;;20.86;85.20
38612;BME280;24368;52.156;20.788;2022-08-21T05:23:33;99977.83;;;20.75;85.42
38612;BME280;24368;52.156;20.788;2022-08-21T05:28:35;99978.30;;;20.70;85.91
38612;BME280;24368;52.156;20.788;2022-08-21T05:33:37;99980.75;;;20.63;86.38
38612;BME280;24368;52.156;20.788;2022-08-21T05:38:39;99983.00;;;20.69;86.50
38612;BME280;24368;52.156;20.788;2022-08-21T05:43:41;99984.54;;;20.69;86.82
38612;BME280;24368;52.156;20.788;2022-08-21T05:48:43;99987.27;;;20.72;86.74
38612;BME280;24368;52.156;20.788;2022-08-21T05:53:45;99983.45;;;20.81;86.63
38612;BME280;24368;52.156;20.788;2022-08-21T05:58:47;99985.64;;;21.00;86.04
38612;BME280;24368;52.156;20.788;2022-08-21T06:03:49;99983.94;;;21.07;85.94
38612;BME280;24368;52.156;20.788;2022-08-21T06:08:50;99984.41;;;21.15;86.26
38612;BME280;24368;52.156;20.788;2022-08-21T06:13:53;99980.75;;;21.20;85.85
38612;BME280;24368;52.156;20.788;2022-08-21T06:18:55;99982.63;;;21.29;85.68
38612;BME280;24368;52.156;20.788;2022-08-21T06:23:57;99988.96;;;21.26;86.04
38612;BME280;24368;52.156;20.788;2022-08-21T06:28:59;99995.75;;;21.31;85.70
38612;BME280;24368;52.156;20.788;2022-08-21T06:34:01;100000.87;;;21.38;85.55
38612;BME280;24368;52.156;20.788;2022-08-21T06:39:03;100004.10;;;21.42;85.78
38612;BME280;24368;52.156;20.788;2022-08-21T06:44:05;100012.41;;;21.37;85.49
38612;BME280;24368;52.156;20.788;2022-08-21T06:49:07;100017.68;;;21.51;85.42
38612;BME280;24368;52.156;20.788;2022-08-21T06:54:10;100014.95;;;21.54;84.98
38612;BME280;24368;52.156;20.788;2022-08-21T06:59:12;100023.14;;;21.61;85.06
38612;BME280;24368;52.156;20.788;2022-08-21T07:04:14;100024.02;;;21.71;84.28
38612;BME280;24368;52.156;20.788;2022-08-21T07:09:16;100016.33;;;21.87;84.02
38612;BME280;24368;52.156;20.788;2022-08-21T07:14:18;100011.42;;;21.99;84.32
38612;BME280;24368;52.156;20.788;2022-08-21T07:19:20;100008.59;;;21.95;85.03
38612;BME280;24368;52.156;20.788;2022-08-21T07:24:22;100007.13;;;22.02;84.60
38612;BME280;24368;52.156;20.788;2022-08-21T07:29:24;100000.38;;;22.18;84.07
38612;BME280;24368;52.156;20.788;2022-08-21T07:34:25;99992.41;;;22.26;83.96
38612;BME280;24368;52.156;20.788;2022-08-21T07:39:27;99988.55;;;22.46;82.83
38612;BME280;24368;52.156;20.788;2022-08-21T07:44:29;99986.63;;;22.57;81.32
38612;BME280;24368;52.156;20.788;2022-08-21T07:49:30;99975.46;;;22.55;82.07
38612;BME280;24368;52.156;20.788;2022-08-21T07:54:32;99965.02;;;22.66;82.37
38612;BME280;24368;52.156;20.788;2022-08-21T07:59:34;99959.42;;;22.66;81.85
38612;BME280;24368;52.156;20.788;2022-08-21T08:04:37;99958.38;;;22.68;82.43
38612;BME280;24368;52.156;20.788;2022-08-21T08:09:38;99957.02;;;22.71;82.32
38612;BME280;24368;52.156;20.788;2022-08-21T08:14:40;99952.96;;;22.80;81.47
38612;BME280;24368;52.156;20.788;2022-08-21T08:19:42;99957.40;;;23.05;79.37
38612;BME280;24368;52.156;20.788;2022-08-21T08:24:43;99955.16;;;23.29;77.34
38612;BME280;24368;52.156;20.788;2022-08-21T08:29:45;99957.78;;;23.38;77.87
38612;BME280;24368;52.156;20.788;2022-08-21T08:34:47;99957.96;;;23.44;77.79
38612;BME280;24368;52.156;20.788;2022-08-21T08:39:50;99962.66;;;23.55;77.11
38612;BME280;24368;52.156;20.788;2022-08-21T08:44:57;99960.63;;;23.59;75.45
38612;BME280;24368;52.156;20.788;2022-08-21T08:55:09;99952.14;;;23.68;76.05
38612;BME280;24368;52.156;20.788;2022-08-21T09:00:14;99955.51;;;23.79;75.16
38612;BME280;24368;52.156;20.788;2022-08-21T09:05:24;99961.75;;;23.87;73.15
38612;BME280;24368;52.156;20.788;2022-08-21T09:10:34;99959.02;;;23.84;73.20
38612;BME280;24368;52.156;20.788;2022-08-21T09:30:55;99944.80;;;24.39;71.92
38612;BME280;24368;52.156;20.788;2022-08-21T09:35:59;99943.02;;;24.49;70.23
38612;BME280;24368;52.156;20.788;2022-08-21T09:41:03;99940.53;;;24.65;69.44
38612;BME280;24368;52.156;20.788;2022-08-21T09:51:09;99938.76;;;24.95;68.49
38612;BME280;24368;52.156;20.788;2022-08-21T09:56:29;99935.88;;;24.99;68.69
38612;BME280;24368;52.156;20.788;2022-08-21T10:01:51;99933.41;;;25.21;67.26
38612;BME280;24368;52.156;20.788;2022-08-21T10:06:53;99932.98;;;24.93;67.67
38612;BME280;24368;52.156;20.788;2022-08-21T10:11:58;99930.39;;;24.74;68.02
38612;BME280;24368;52.156;20.788;2022-08-21T10:27:30;99925.00;;;24.58;69.02
38612;BME280;24368;52.156;20.788;2022-08-21T10:47:46;99918.86;;;25.16;66.22
38612;BME280;24368;52.156;20.788;2022-08-21T10:52:53;99915.48;;;25.82;64.11
38612;BME280;24368;52.156;20.788;2022-08-21T10:58:10;99914.88;;;26.26;64.52
38612;BME280;24368;52.156;20.788;2022-08-21T11:08:15;99909.09;;;26.39;61.65
38612;BME280;24368;52.156;20.788;2022-08-21T11:13:24;99905.91;;;25.82;63.46
38612;BME280;24368;52.156;20.788;2022-08-21T11:18:32;99902.73;;;25.49;65.12
38612;BME280;24368;52.156;20.788;2022-08-21T11:23:41;99903.29;;;25.32;64.89
38612;BME280;24368;52.156;20.788;2022-08-21T11:28:51;99901.25;;;25.26;65.26
38612;BME280;24368;52.156;20.788;2022-08-21T11:44:18;99905.02;;;25.67;65.38
38612;BME280;24368;52.156;20.788;2022-08-21T11:59:36;99898.11;;;26.86;58.59
38612;BME280;24368;52.156;20.788;2022-08-21T12:04:44;99899.36;;;26.85;59.87
38612;BME280;24368;52.156;20.788;2022-08-21T12:09:54;99902.23;;;26.57;60.96
38612;BME280;24368;52.156;20.788;2022-08-21T12:25:19;99893.67;;;26.67;59.93
38612;BME280;24368;52.156;20.788;2022-08-21T12:35:40;99893.08;;;26.52;59.11
38612;BME280;24368;52.156;20.788;2022-08-21T12:40:47;99896.20;;;26.39;59.86
38612;BME280;24368;52.156;20.788;2022-08-21T12:45:50;99897.98;;;26.41;58.74
38612;BME280;24368;52.156;20.788;2022-08-21T12:51:06;99887.59;;;26.42;59.07
38612;BME280;24368;52.156;20.788;2022-08-21T12:56:24;99892.91;;;26.49;59.72
38612;BME280;24368;52.156;20.788;2022-08-21T13:01:33;99890.59;;;26.63;58.64
38612;BME280;24368;52.156;20.788;2022-08-21T13:06:43;99891.28;;;26.47;58.84
38612;BME280;24368;52.156;20.788;2022-08-21T13:11:46;99887.58;;;26.35;58.12
38612;BME280;24368;52.156;20.788;2022-08-21T13:16:52;99883.16;;;26.23;58.95
38612;BME280;24368;52.156;20.788;2022-08-21T13:21:54;99885.80;;;26.17;59.24
38612;BME280;24368;52.156;20.788;2022-08-21T13:26:56;99886.69;;;26.21;59.80
38612;BME280;24368;52.156;20.788;2022-08-21T13:32:00;99881.09;;;26.64;59.39
38612;BME280;24368;52.156;20.788;2022-08-21T13:37:04;99875.95;;;27.10;57.86
38612;BME280;24368;52.156;20.788;2022-08-21T13:42:09;99875.56;;;27.39;56.86
38612;BME280;24368;52.156;20.788;2022-08-21T13:47:14;99876.40;;;27.33;55.27
38612;BME280;24368;52.156;20.788;2022-08-21T13:52:18;99871.52;;;27.33;55.22
38612;BME280;24368;52.156;20.788;2022-08-21T13:57:30;99876.38;;;27.41;55.84
38612;BME280;24368;52.156;20.788;2022-08-21T14:02:37;99874.96;;;27.54;55.31
38612;BME280;24368;52.156;20.788;2022-08-21T14:07:39;99871.80;;;27.25;55.67
38612;BME280;24368;52.156;20.788;2022-08-21T14:12:43;99878.59;;;26.77;57.51
38612;BME280;24368;52.156;20.788;2022-08-21T14:17:45;99886.51;;;26.47;58.24
38612;BME280;24368;52.156;20.788;2022-08-21T14:22:48;99887.13;;;26.32;58.33
38612;BME280;24368;52.156;20.788;2022-08-21T14:32:58;99883.51;;;26.41;58.49
38612;BME280;24368;52.156;20.788;2022-08-21T14:38:00;99885.81;;;26.51;57.14
38612;BME280;24368;52.156;20.788;2022-08-21T14:43:02;99887.33;;;26.65;57.46
38612;BME280;24368;52.156;20.788;2022-08-21T14:48:04;99886.03;;;26.83;56.49
38612;BME280;24368;52.156;20.788;2022-08-21T14:53:06;99884.08;;;26.62;57.09
38612;BME280;24368;52.156;20.788;2022-08-21T14:58:07;99877.73;;;26.61;57.06
38612;BME280;24368;52.156;20.788;2022-08-21T15:03:09;99873.52;;;26.71;57.69
38612;BME280;24368;52.156;20.788;2022-08-21T15:08:11;99868.02;;;26.79;57.02
38612;BME280;24368;52.156;20.788;2022-08-21T15:13:13;99870.80;;;26.62;57.34
38612;BME280;24368;52.156;20.788;2022-08-21T15:18:15;99867.82;;;26.61;58.31
38612;BME280;24368;52.156;20.788;2022-08-21T15:23:17;99872.44;;;26.49;58.79
38612;BME280;24368;52.156;20.788;2022-08-21T15:28:19;99871.59;;;26.40;58.71
38612;BME280;24368;52.156;20.788;2022-08-21T15:33:21;99873.86;;;26.27;58.64
38612;BME280;24368;52.156;20.788;2022-08-21T15:38:23;99873.74;;;26.23;59.60
38612;BME280;24368;52.156;20.788;2022-08-21T15:43:27;99873.23;;;26.15;59.22
38612;BME280;24368;52.156;20.788;2022-08-21T15:48:29;99874.09;;;26.08;58.73
38612;BME280;24368;52.156;20.788;2022-08-21T15:53:31;99876.47;;;26.04;59.13
38612;BME280;24368;52.156;20.788;2022-08-21T15:58:37;99882.63;;;26.00;59.39
38612;BME280;24368;52.156;20.788;2022-08-21T16:03:39;99886.75;;;25.97;58.91
38612;BME280;24368;52.156;20.788;2022-08-21T16:08:42;99888.78;;;25.91;58.36
38612;BME280;24368;52.156;20.788;2022-08-21T16:13:44;99897.23;;;25.91;59.20
38612;BME280;24368;52.156;20.788;2022-08-21T16:18:48;99898.09;;;25.90;59.36
38612;BME280;24368;52.156;20.788;2022-08-21T16:23:50;99903.01;;;25.84;59.18
38612;BME280;24368;52.156;20.788;2022-08-21T16:28:53;99907.56;;;25.76;59.16
38612;BME280;24368;52.156;20.788;2022-08-21T16:33:58;99911.53;;;25.69;59.19
38612;BME280;24368;52.156;20.788;2022-08-21T16:39:01;99907.64;;;25.60;59.43
38612;BME280;24368;52.156;20.788;2022-08-21T16:44:04;99906.80;;;25.50;59.79
38612;BME280;24368;52.156;20.788;2022-08-21T16:49:06;99920.13;;;25.43;59.78
38612;BME280;24368;52.156;20.788;2022-08-21T16:54:08;99925.48;;;25.44;60.37
38612;BME280;24368;52.156;20.788;2022-08-21T16:59:11;99932.05;;;25.39;61.90
38612;BME280;24368;52.156;20.788;2022-08-21T17:04:13;99937.71;;;25.26;62.87
38612;BME280;24368;52.156;20.788;2022-08-21T17:09:14;99939.77;;;25.05;63.86
38612;BME280;24368;52.156;20.788;2022-08-21T17:14:20;99932.39;;;24.95;64.41
38612;BME280;24368;52.156;20.788;2022-08-21T17:19:23;99938.45;;;24.88;65.47
38612;BME280;24368;52.156;20.788;2022-08-21T17:24:25;99944.89;;;24.70;65.97
38612;BME280;24368;52.156;20.788;2022-08-21T17:29:28;99946.95;;;24.58;67.44
38612;BME280;24368;52.156;20.788;2022-08-21T17:34:30;99948.63;;;24.33;70.40
38612;BME280;24368;52.156;20.788;2022-08-21T17:39:32;99952.45;;;24.09;71.28
38612;BME280;24368;52.156;20.788;2022-08-21T17:44:42;99953.58;;;23.94;70.74
38612;BME280;24368;52.156;20.788;2022-08-21T17:49:44;99959.66;;;23.87;70.98
38612;BME280;24368;52.156;20.788;2022-08-21T17:54:46;99967.09;;;23.82;70.98
38612;BME280;24368;52.156;20.788;2022-08-21T17:59:48;99972.56;;;23.79;70.87
38612;BME280;24368;52.156;20.788;2022-08-21T18:04:51;99977.01;;;23.68;71.25
38612;BME280;24368;52.156;20.788;2022-08-21T18:09:52;99976.81;;;23.68;71.14
38612;BME280;24368;52.156;20.788;2022-08-21T18:14:55;99977.98;;;23.61;71.49
38612;BME280;24368;52.156;20.788;2022-08-21T18:19:56;99981.42;;;23.46;71.93
38612;BME280;24368;52.156;20.788;2022-08-21T18:25:00;99982.75;;;23.45;72.04
38612;BME280;24368;52.156;20.788;2022-08-21T18:30:02;99988.68;;;23.42;72.16
38612;BME280;24368;52.156;20.788;2022-08-21T18:35:04;99995.27;;;23.49;71.97
38612;BME280;24368;52.156;20.788;2022-08-21T18:40:07;99995.02;;;23.42;72.51
38612;BME280;24368;52.156;20.788;2022-08-21T18:45:11;99995.30;;;23.41;72.16
38612;BME280;24368;52.156;20.788;2022-08-21T18:50:18;99994.88;;;23.33;72.57
38612;BME280;24368;52.156;20.788;2022-08-21T18:55:20;99996.84;;;23.35;72.49
38612;BME280;24368;52.156;20.788;2022-08-21T19:00:24;99999.13;;;23.33;72.93
38612;BME280;24368;52.156;20.788;2022-08-21T19:05:27;99999.45;;;23.26;73.28
38612;BME280;24368;52.156;20.788;2022-08-21T19:10:29;100002.36;;;23.18;73.59
38612;BME280;24368;52.156;20.788;2022-08-21T19:15:30;100006.80;;;23.16;73.68
38612;BME280;24368;52.156;20.788;2022-08-21T19:20:34;100012.30;;;23.13;73.87
38612;BME280;24368;52.156;20.788;2022-08-21T19:25:37;100008.75;;;23.03;74.16
38612;BME280;24368;52.156;20.788;2022-08-21T19:30:43;100010.08;;;22.99;74.37
38612;BME280;24368;52.156;20.788;2022-08-21T19:35:46;100011.21;;;22.91;74.57
38612;BME280;24368;52.156;20.788;2022-08-21T19:40:49;100008.97;;;22.83;75.02
38612;BME280;24368;52.156;20.788;2022-08-21T19:45:52;100012.38;;;22.72;75.80
38612;BME280;24368;52.156;20.788;2022-08-21T19:50:55;100013.91;;;22.59;77.19
38612;BME280;24368;52.156;20.788;2022-08-21T19:55:56;100011.73;;;22.45;78.24
38612;BME280;24368;52.156;20.788;2022-08-21T20:00:59;100015.02;;;22.35;78.87
38612;BME280;24368;52.156;20.788;2022-08-21T20:06:01;100018.02;;;22.36;79.81
38612;BME280;24368;52.156;20.788;2022-08-21T20:11:04;100020.66;;;22.32;80.55
38612;BME280;24368;52.156;20.788;2022-08-21T20:16:08;100018.45;;;22.28;80.22
38612;BME280;24368;52.156;20.788;2022-08-21T20:21:10;100016.82;;;22.24;80.26
38612;BME280;24368;52.156;20.788;2022-08-21T20:26:13;100017.23;;;22.17;80.45
38612;BME280;24368;52.156;20.788;2022-08-21T20:31:15;100017.90;;;22.05;81.17
38612;BME280;24368;52.156;20.788;2022-08-21T20:36:18;100023.42;;;21.86;81.85
38612;BME280;24368;52.156;20.788;2022-08-21T20:41:21;100018.34;;;21.68;83.47
38612;BME280;24368;52.156;20.788;2022-08-21T20:46:24;100021.19;;;21.51;83.88
38612;BME280;24368;52.156;20.788;2022-08-21T20:51:29;100019.58;;;21.40;84.89
38612;BME280;24368;52.156;20.788;2022-08-21T21:01:49;100017.50;;;21.28;85.96
38612;BME280;24368;52.156;20.788;2022-08-21T21:06:52;100019.60;;;21.33;86.02
38612;BME280;24368;52.156;20.788;2022-08-21T21:11:55;100017.21;;;21.32;86.31
38612;BME280;24368;52.156;20.788;2022-08-21T21:16:59;100012.97;;;21.25;86.93
38612;BME280;24368;52.156;20.788;2022-08-21T21:22:11;100015.19;;;21.26;87.09
38612;BME280;24368;52.156;20.788;2022-08-21T21:27:37;100012.94;;;21.26;87.12
38612;BME280;24368;52.156;20.788;2022-08-21T21:32:37;100012.70;;;21.27;87.39
38612;BME280;24368;52.156;20.788;2022-08-21T21:37:51;100011.78;;;21.24;87.19
38612;BME280;24368;52.156;20.788;2022-08-21T22:14:09;100018.02;;;21.09;86.47
38612;BME280;24368;52.156;20.788;2022-08-21T22:19:25;100013.13;;;21.03;86.60
38612;BME280;24368;52.156;20.788;2022-08-21T22:24:30;100014.36;;;20.92;87.32
38612;BME280;24368;52.156;20.788;2022-08-21T22:45:22;100015.79;;;20.45;89.40
38612;BME280;24368;52.156;20.788;2022-08-21T22:55:29;100018.79;;;20.16;92.23
38612;BME280;24368;52.156;20.788;2022-08-21T23:00:40;100018.08;;;20.08;95.31
38612;BME280;24368;52.156;20.788;2022-08-21T23:05:43;100018.51;;;19.94;95.78
38612;BME280;24368;52.156;20.788;2022-08-21T23:10:44;100025.35;;;19.95;95.14
38612;BME280;24368;52.156;20.788;2022-08-21T23:52:56;100038.49;;;19.73;95.95
